sensor_id;sensor_type;location;lat;lon;timestamp;P1;durP1;ratioP1;P2;durP2;ratioP2
5149;SDS011;2593;52.466;13.436;2023-07-28T00:01:28;1.83;;;1.73;;
5149;SDS011;2593;52.466;13.436;2023-07-28T00:03:54;2.63;;;2.50;;
5149;SDS011;2593;52.466;13.436;2023-07-28T00:06:20;1.80;;;1.70;;
5149;SDS011;2593;52.466;13.436;2023-07-28T00:08:46;3.83;;;1.87;;
5149;SDS011;2593;52.466;13.436;2023-07-28T00:11:13;2.40;;;2.20;;
5149;SDS011;2593;52.466;13.436;2023-07-28T00:13:40;7.57;;;2.30;;
5149;SDS011;2593;52.466;13.436;2023-07-28T00:16:06;4.10;;;2.17;;
5149;SDS011;2593;52.466;13.436;2023-07-28T00:18:32;4.67;;;2.90;;
5149;SDS011;2593;52.466;13.436;2023-07-28T00:20:58;8.97;;;3.90;;
5149;SDS011;2593;52.466;13.436;2023-07-28T00:23:25;4.70;;;3.90;;
5149;SDS011;2593;52.466;13.436;2023-07-28T00:25:51;2.87;;;2.77;;
5149;SDS011;2593;52.466;13.436;2023-07-28T00:28:17;4.27;;;3.90;;
5149;SDS011;2593;52.466;13.436;2023-07-28T00:30:43;3.60;;;3.40;;
5149;SDS011;2593;52.466;13.436;2023-07-28T00:33:09;5.90;;;3.93;;
5149;SDS011;2593;52.466;13.436;2023-07-28T00:35:35;4.00;;;3.70;;
5149;SDS011;2593;52.466;13.436;2023-07-28T00:38:01;4.40;;;4.10;;
5149;SDS011;2593;52.466;13.436;2023-07-28T00:40:27;6.13;;;4.50;;
5149;SDS011;2593;52.466;13.436;2023-07-28T00:42:53;4.37;;;4.00;;
5149;SDS011;2593;52.466;13.436;2023-07-28T00:45:20;5.83;;;4.23;;
5149;SDS011;2593;52.466;13.436;2023-07-28T00:47:46;4.30;;;3.60;;
5149;SDS011;2593;52.466;13.436;2023-07-28T00:50:12;4.43;;;4.20;;
5149;SDS011;2593;52.466;13.436;2023-07-28T00:52:39;4.87;;;4.33;;
5149;SDS011;2593;52.466;13.436;2023-07-28T00:55:05;7.57;;;4.47;;
5149;SDS011;2593;52.466;13.436;2023-07-28T00:57:32;8.40;;;4.50;;
5149;SDS011;2593;52.466;13.436;2023-07-28T00:59:59;4.87;;;4.47;;
5149;SDS011;2593;52.466;13.436;2023-07-28T01:02:25;4.47;;;4.07;;
5149;SDS011;2593;52.466;13.436;2023-07-28T01:04:51;7.60;;;4.47;;
5149;SDS011;2593;52.466;13.436;2023-07-28T01:07:27;7.80;;;4.90;;
5149;SDS011;2593;52.466;13.436;2023-07-28T01:12:25;6.50;;;4.00;;
5149;SDS011;2593;52.466;13.436;2023-07-28T01:14:51;3.93;;;3.60;;
5149;SDS011;2593;52.466;13.436;2023-07-28T01:17:17;3.83;;;3.63;;
5149;SDS011;2593;52.466;13.436;2023-07-28T01:19:44;3.50;;;2.93;;
5149;SDS011;2593;52.466;13.436;2023-07-28T01:22:21;2.80;;;2.60;;
5149;SDS011;2593;52.466;13.436;2023-07-28T01:24:57;3.53;;;2.63;;
5149;SDS011;2593;52.466;13.436;2023-07-28T01:27:27;2.90;;;2.20;;
5149;SDS011;2593;52.466;13.436;2023-07-28T01:29:54;4.07;;;3.00;;
5149;SDS011;2593;52.466;13.436;2023-07-28T01:32:20;3.17;;;2.83;;
5149;SDS011;2593;52.466;13.436;2023-07-28T01:34:46;2.73;;;2.53;;
5149;SDS011;2593;52.466;13.436;2023-07-28T01:37:12;4.40;;;2.50;;
5149;SDS011;2593;52.466;13.436;2023-07-28T01:39:38;2.20;;;2.10;;
5149;SDS011;2593;52.466;13.436;2023-07-28T01:42:04;5.90;;;3.27;;
5149;SDS011;2593;52.466;13.436;2023-07-28T01:44:30;5.23;;;2.30;;
5149;SDS011;2593;52.466;13.436;2023-07-28T01:46:56;7.70;;;2.23;;
5149;SDS011;2593;52.466;13.436;2023-07-28T01:49:22;2.90;;;2.43;;
5149;SDS011;2593;52.466;13.436;2023-07-28T01:51:48;9.03;;;2.50;;
5149;SDS011;2593;52.466;13.436;2023-07-28T01:54:14;3.07;;;2.57;;
5149;SDS011;2593;52.466;13.436;2023-07-28T01:56:40;6.37;;;3.03;;
5149;SDS011;2593;52.466;13.436;2023-07-28T01:59:06;4.63;;;3.00;;
5149;SDS011;2593;52.466;13.436;2023-07-28T02:01:33;7.43;;;2.87;;
5149;SDS011;2593;52.466;13.436;2023-07-28T02:03:59;2.93;;;2.73;;
5149;SDS011;2593;52.466;13.436;2023-07-28T02:06:25;4.10;;;2.80;;
5149;SDS011;2593;52.466;13.436;2023-07-28T02:08:52;2.90;;;2.70;;
5149;SDS011;2593;52.466;13.436;2023-07-28T02:11:18;4.70;;;3.60;;
5149;SDS011;2593;52.466;13.436;2023-07-28T02:13:44;3.63;;;3.30;;
5149;SDS011;2593;52.466;13.436;2023-07-28T02:16:10;4.50;;;3.10;;
5149;SDS011;2593;52.466;13.436;2023-07-28T02:18:37;9.50;;;4.03;;
5149;SDS011;2593;52.466;13.436;2023-07-28T02:21:03;4.20;;;3.80;;
5149;SDS011;2593;52.466;13.436;2023-07-28T02:23:29;9.23;;;4.23;;
5149;SDS011;2593;52.466;13.436;2023-07-28T02:25:55;3.73;;;3.50;;
5149;SDS011;2593;52.466;13.436;2023-07-28T02:28:21;4.10;;;3.70;;
5149;SDS011;2593;52.466;13.436;2023-07-28T02:30:47;4.70;;;3.20;;
5149;SDS011;2593;52.466;13.436;2023-07-28T02:33:13;8.27;;;3.90;;
5149;SDS011;2593;52.466;13.436;2023-07-28T02:35:39;4.93;;;3.90;;
5149;SDS011;2593;52.466;13.436;2023-07-28T02:38:05;6.40;;;4.03;;
5149;SDS011;2593;52.466;13.436;2023-07-28T02:40:32;8.27;;;5.03;;
5149;SDS011;2593;52.466;13.436;2023-07-28T02:42:58;9.83;;;4.47;;
5149;SDS011;2593;52.466;13.436;2023-07-28T02:45:24;11.73;;;5.07;;
5149;SDS011;2593;52.466;13.436;2023-07-28T02:47:51;4.50;;;3.67;;
5149;SDS011;2593;52.466;13.436;2023-07-28T02:50:17;7.40;;;3.90;;
5149;SDS011;2593;52.466;13.436;2023-07-28T02:52:43;6.57;;;4.47;;
5149;SDS011;2593;52.466;13.436;2023-07-28T02:55:09;6.53;;;4.60;;
5149;SDS011;2593;52.466;13.436;2023-07-28T02:57:35;5.23;;;4.80;;
5149;SDS011;2593;52.466;13.436;2023-07-28T03:00:01;6.70;;;4.47;;
5149;SDS011;2593;52.466;13.436;2023-07-28T03:02:30;8.93;;;4.23;;
5149;SDS011;2593;52.466;13.436;2023-07-28T03:04:56;14.00;;;4.23;;
5149;SDS011;2593;52.466;13.436;2023-07-28T03:07:22;9.87;;;4.73;;
5149;SDS011;2593;52.466;13.436;2023-07-28T03:09:48;9.30;;;4.37;;
5149;SDS011;2593;52.466;13.436;2023-07-28T03:12:14;6.93;;;4.40;;
5149;SDS011;2593;52.466;13.436;2023-07-28T03:14:40;10.40;;;4.30;;
5149;SDS011;2593;52.466;13.436;2023-07-28T03:17:06;4.67;;;4.27;;
5149;SDS011;2593;52.466;13.436;2023-07-28T03:19:32;4.40;;;4.00;;
5149;SDS011;2593;52.466;13.436;2023-07-28T03:21:59;5.90;;;4.23;;
5149;SDS011;2593;52.466;13.436;2023-07-28T03:24:25;6.97;;;4.83;;
5149;SDS011;2593;52.466;13.436;2023-07-28T03:26:51;8.43;;;4.30;;
5149;SDS011;2593;52.466;13.436;2023-07-28T03:29:17;6.07;;;4.30;;
5149;SDS011;2593;52.466;13.436;2023-07-28T03:31:43;9.43;;;4.50;;
5149;SDS011;2593;52.466;13.436;2023-07-28T03:34:09;9.77;;;4.40;;
5149;SDS011;2593;52.466;13.436;2023-07-28T03:36:35;7.10;;;3.83;;
5149;SDS011;2593;52.466;13.436;2023-07-28T03:39:01;8.33;;;4.37;;
5149;SDS011;2593;52.466;13.436;2023-07-28T03:41:27;8.80;;;4.50;;
5149;SDS011;2593;52.466;13.436;2023-07-28T03:43:53;6.53;;;5.20;;
5149;SDS011;2593;52.466;13.436;2023-07-28T03:46:20;7.97;;;4.90;;
5149;SDS011;2593;52.466;13.436;2023-07-28T03:48:46;5.40;;;4.90;;
5149;SDS011;2593;52.466;13.436;2023-07-28T03:51:12;6.53;;;5.50;;
5149;SDS011;2593;52.466;13.436;2023-07-28T03:53:38;11.57;;;5.00;;
5149;SDS011;2593;52.466;13.436;2023-07-28T03:56:04;7.07;;;5.30;;
5149;SDS011;2593;52.466;13.436;2023-07-28T03:58:30;8.80;;;5.30;;
5149;SDS011;2593;52.466;13.436;2023-07-28T04:00:56;6.27;;;5.40;;
5149;SDS011;2593;52.466;13.436;2023-07-28T04:03:22;6.33;;;5.53;;
5149;SDS011;2593;52.466;13.436;2023-07-28T04:05:48;6.20;;;5.40;;
5149;SDS011;2593;52.466;13.436;2023-07-28T04:08:14;6.13;;;5.50;;
5149;SDS011;2593;52.466;13.436;2023-07-28T04:10:40;12.13;;;6.03;;
5149;SDS011;2593;52.466;13.436;2023-07-28T04:13:07;7.37;;;6.20;;
5149;SDS011;2593;52.466;13.436;2023-07-28T04:15:33;12.27;;;6.37;;
5149;SDS011;2593;52.466;13.436;2023-07-28T04:17:59;7.60;;;5.63;;
5149;SDS011;2593;52.466;13.436;2023-07-28T04:20:25;10.53;;;6.17;;
5149;SDS011;2593;52.466;13.436;2023-07-28T04:22:51;15.13;;;6.90;;
5149;SDS011;2593;52.466;13.436;2023-07-28T04:25:17;9.20;;;7.07;;
5149;SDS011;2593;52.466;13.436;2023-07-28T04:27:44;11.00;;;6.73;;
5149;SDS011;2593;52.466;13.436;2023-07-28T04:30:10;7.20;;;5.93;;
5149;SDS011;2593;52.466;13.436;2023-07-28T04:32:36;10.20;;;7.00;;
5149;SDS011;2593;52.466;13.436;2023-07-28T04:35:02;11.47;;;7.00;;
5149;SDS011;2593;52.466;13.436;2023-07-28T04:37:30;13.00;;;7.10;;
5149;SDS011;2593;52.466;13.436;2023-07-28T04:39:56;9.80;;;6.70;;
5149;SDS011;2593;52.466;13.436;2023-07-28T04:42:22;13.77;;;5.97;;
5149;SDS011;2593;52.466;13.436;2023-07-28T04:44:48;7.13;;;6.40;;
5149;SDS011;2593;52.466;13.436;2023-07-28T04:47:14;18.93;;;6.60;;
5149;SDS011;2593;52.466;13.436;2023-07-28T04:49:40;9.53;;;6.87;;
5149;SDS011;2593;52.466;13.436;2023-07-28T04:52:07;7.37;;;6.40;;
5149;SDS011;2593;52.466;13.436;2023-07-28T04:54:33;12.10;;;7.30;;
5149;SDS011;2593;52.466;13.436;2023-07-28T04:56:59;9.30;;;7.30;;
5149;SDS011;2593;52.466;13.436;2023-07-28T04:59:25;14.13;;;8.00;;
5149;SDS011;2593;52.466;13.436;2023-07-28T05:01:51;7.30;;;6.50;;
5149;SDS011;2593;52.466;13.436;2023-07-28T05:04:17;9.40;;;6.77;;
5149;SDS011;2593;52.466;13.436;2023-07-28T05:06:44;11.33;;;7.97;;
5149;SDS011;2593;52.466;13.436;2023-07-28T05:09:10;9.93;;;7.13;;
5149;SDS011;2593;52.466;13.436;2023-07-28T05:11:36;8.10;;;6.50;;
5149;SDS011;2593;52.466;13.436;2023-07-28T05:14:02;8.40;;;6.43;;
5149;SDS011;2593;52.466;13.436;2023-07-28T05:16:31;6.87;;;6.20;;
5149;SDS011;2593;52.466;13.436;2023-07-28T05:18:57;10.83;;;6.73;;
5149;SDS011;2593;52.466;13.436;2023-07-28T05:21:23;8.70;;;7.83;;
5149;SDS011;2593;52.466;13.436;2023-07-28T05:23:50;8.53;;;7.63;;
5149;SDS011;2593;52.466;13.436;2023-07-28T05:26:16;6.77;;;6.20;;
5149;SDS011;2593;52.466;13.436;2023-07-28T05:28:42;10.90;;;7.27;;
5149;SDS011;2593;52.466;13.436;2023-07-28T05:31:08;8.10;;;7.40;;
5149;SDS011;2593;52.466;13.436;2023-07-28T05:33:34;10.03;;;7.17;;
5149;SDS011;2593;52.466;13.436;2023-07-28T05:36:02;13.37;;;6.90;;
5149;SDS011;2593;52.466;13.436;2023-07-28T05:38:29;10.63;;;8.37;;
5149;SDS011;2593;52.466;13.436;2023-07-28T05:40:56;8.53;;;6.43;;
5149;SDS011;2593;52.466;13.436;2023-07-28T05:43:22;8.57;;;7.67;;
5149;SDS011;2593;52.466;13.436;2023-07-28T05:45:48;13.50;;;6.70;;
5149;SDS011;2593;52.466;13.436;2023-07-28T05:48:14;9.23;;;7.00;;
5149;SDS011;2593;52.466;13.436;2023-07-28T05:50:40;9.07;;;6.77;;
5149;SDS011;2593;52.466;13.436;2023-07-28T05:53:06;7.93;;;7.13;;
5149;SDS011;2593;52.466;13.436;2023-07-28T05:55:32;8.83;;;7.10;;
5149;SDS011;2593;52.466;13.436;2023-07-28T05:57:58;9.10;;;7.20;;
5149;SDS011;2593;52.466;13.436;2023-07-28T06:00:24;9.17;;;7.07;;
5149;SDS011;2593;52.466;13.436;2023-07-28T06:02:51;7.20;;;5.97;;
5149;SDS011;2593;52.466;13.436;2023-07-28T06:05:17;6.50;;;5.47;;
5149;SDS011;2593;52.466;13.436;2023-07-28T06:07:43;10.60;;;6.00;;
5149;SDS011;2593;52.466;13.436;2023-07-28T06:10:09;8.47;;;6.27;;
5149;SDS011;2593;52.466;13.436;2023-07-28T06:12:35;7.53;;;6.47;;
5149;SDS011;2593;52.466;13.436;2023-07-28T06:15:01;6.40;;;5.80;;
5149;SDS011;2593;52.466;13.436;2023-07-28T06:17:28;11.27;;;6.60;;
5149;SDS011;2593;52.466;13.436;2023-07-28T06:19:54;12.83;;;6.60;;
5149;SDS011;2593;52.466;13.436;2023-07-28T06:22:20;19.03;;;6.50;;
5149;SDS011;2593;52.466;13.436;2023-07-28T06:24:46;11.17;;;6.20;;
5149;SDS011;2593;52.466;13.436;2023-07-28T06:27:12;7.80;;;6.70;;
5149;SDS011;2593;52.466;13.436;2023-07-28T06:29:38;6.57;;;5.40;;
5149;SDS011;2593;52.466;13.436;2023-07-28T06:32:05;13.00;;;6.43;;
5149;SDS011;2593;52.466;13.436;2023-07-28T06:34:31;8.57;;;6.13;;
5149;SDS011;2593;52.466;13.436;2023-07-28T06:36:57;6.53;;;5.77;;
5149;SDS011;2593;52.466;13.436;2023-07-28T06:39:23;11.83;;;5.63;;
5149;SDS011;2593;52.466;13.436;2023-07-28T06:41:50;8.03;;;6.27;;
5149;SDS011;2593;52.466;13.436;2023-07-28T06:44:16;7.13;;;6.17;;
5149;SDS011;2593;52.466;13.436;2023-07-28T06:46:42;8.63;;;5.20;;
5149;SDS011;2593;52.466;13.436;2023-07-28T06:49:08;6.93;;;5.50;;
5149;SDS011;2593;52.466;13.436;2023-07-28T06:51:35;5.03;;;4.63;;
5149;SDS011;2593;52.466;13.436;2023-07-28T06:54:01;10.80;;;5.50;;
5149;SDS011;2593;52.466;13.436;2023-07-28T06:56:27;7.87;;;5.17;;
5149;SDS011;2593;52.466;13.436;2023-07-28T06:58:53;7.00;;;4.70;;
5149;SDS011;2593;52.466;13.436;2023-07-28T07:01:19;9.63;;;5.07;;
5149;SDS011;2593;52.466;13.436;2023-07-28T07:03:47;4.37;;;4.07;;
5149;SDS011;2593;52.466;13.436;2023-07-28T07:06:13;6.83;;;5.03;;
5149;SDS011;2593;52.466;13.436;2023-07-28T07:08:39;5.07;;;4.57;;
5149;SDS011;2593;52.466;13.436;2023-07-28T07:11:05;4.67;;;4.33;;
5149;SDS011;2593;52.466;13.436;2023-07-28T07:13:31;8.70;;;4.97;;
5149;SDS011;2593;52.466;13.436;2023-07-28T07:15:57;4.27;;;3.70;;
5149;SDS011;2593;52.466;13.436;2023-07-28T07:18:23;8.70;;;4.03;;
5149;SDS011;2593;52.466;13.436;2023-07-28T07:20:49;7.50;;;3.83;;
5149;SDS011;2593;52.466;13.436;2023-07-28T07:23:15;8.97;;;4.80;;
5149;SDS011;2593;52.466;13.436;2023-07-28T07:25:41;7.03;;;3.67;;
5149;SDS011;2593;52.466;13.436;2023-07-28T07:28:07;3.93;;;3.53;;
5149;SDS011;2593;52.466;13.436;2023-07-28T07:30:33;7.40;;;3.47;;
5149;SDS011;2593;52.466;13.436;2023-07-28T07:32:59;4.47;;;3.20;;
5149;SDS011;2593;52.466;13.436;2023-07-28T07:35:26;5.73;;;3.33;;
5149;SDS011;2593;52.466;13.436;2023-07-28T07:37:52;4.10;;;3.67;;
5149;SDS011;2593;52.466;13.436;2023-07-28T07:40:18;5.63;;;3.57;;
5149;SDS011;2593;52.466;13.436;2023-07-28T07:42:46;2.97;;;2.77;;
5149;SDS011;2593;52.466;13.436;2023-07-28T07:45:12;2.87;;;2.37;;
5149;SDS011;2593;52.466;13.436;2023-07-28T07:47:39;2.80;;;2.60;;
5149;SDS011;2593;52.466;13.436;2023-07-28T07:50:06;4.33;;;1.80;;
5149;SDS011;2593;52.466;13.436;2023-07-28T07:52:36;11.80;;;2.57;;
5149;SDS011;2593;52.466;13.436;2023-07-28T07:55:02;1.77;;;1.67;;
5149;SDS011;2593;52.466;13.436;2023-07-28T07:57:29;2.10;;;1.90;;
5149;SDS011;2593;52.466;13.436;2023-07-28T07:59:57;5.83;;;1.50;;
5149;SDS011;2593;52.466;13.436;2023-07-28T08:02:23;2.53;;;1.77;;
5149;SDS011;2593;52.466;13.436;2023-07-28T08:04:51;4.30;;;1.70;;
5149;SDS011;2593;52.466;13.436;2023-07-28T08:07:19;2.40;;;1.37;;
5149;SDS011;2593;52.466;13.436;2023-07-28T08:09:45;1.63;;;1.53;;
5149;SDS011;2593;52.466;13.436;2023-07-28T08:12:12;1.30;;;1.20;;
5149;SDS011;2593;52.466;13.436;2023-07-28T08:14:38;3.47;;;1.43;;
5149;SDS011;2593;52.466;13.436;2023-07-28T08:17:04;2.20;;;1.53;;
5149;SDS011;2593;52.466;13.436;2023-07-28T08:19:30;3.10;;;1.57;;
5149;SDS011;2593;52.466;13.436;2023-07-28T08:21:56;1.90;;;1.70;;
5149;SDS011;2593;52.466;13.436;2023-07-28T08:24:22;3.33;;;1.80;;
5149;SDS011;2593;52.466;13.436;2023-07-28T08:26:48;4.73;;;1.30;;
5149;SDS011;2593;52.466;13.436;2023-07-28T08:29:14;5.13;;;2.00;;
5149;SDS011;2593;52.466;13.436;2023-07-28T08:31:40;7.07;;;3.27;;
5149;SDS011;2593;52.466;13.436;2023-07-28T08:34:07;2.80;;;1.50;;
5149;SDS011;2593;52.466;13.436;2023-07-28T08:36:33;4.40;;;1.47;;
5149;SDS011;2593;52.466;13.436;2023-07-28T08:38:59;3.20;;;2.37;;
5149;SDS011;2593;52.466;13.436;2023-07-28T08:41:25;6.03;;;1.83;;
5149;SDS011;2593;52.466;13.436;2023-07-28T08:43:53;1.47;;;1.37;;
5149;SDS011;2593;52.466;13.436;2023-07-28T08:46:20;1.33;;;1.23;;
5149;SDS011;2593;52.466;13.436;2023-07-28T08:48:46;1.80;;;1.23;;
5149;SDS011;2593;52.466;13.436;2023-07-28T08:51:12;1.83;;;1.20;;
5149;SDS011;2593;52.466;13.436;2023-07-28T08:53:39;3.53;;;1.27;;
5149;SDS011;2593;52.466;13.436;2023-07-28T08:56:05;1.90;;;1.80;;
5149;SDS011;2593;52.466;13.436;2023-07-28T08:58:31;1.63;;;1.30;;
5149;SDS011;2593;52.466;13.436;2023-07-28T09:00:58;3.03;;;1.20;;
5149;SDS011;2593;52.466;13.436;2023-07-28T09:03:26;8.77;;;1.40;;
5149;SDS011;2593;52.466;13.436;2023-07-28T09:06:00;2.17;;;1.30;;
5149;SDS011;2593;52.466;13.436;2023-07-28T09:08:27;2.30;;;1.53;;
5149;SDS011;2593;52.466;13.436;2023-07-28T09:10:54;6.53;;;1.50;;
5149;SDS011;2593;52.466;13.436;2023-07-28T09:13:20;1.83;;;1.73;;
5149;SDS011;2593;52.466;13.436;2023-07-28T09:15:46;1.80;;;1.70;;
5149;SDS011;2593;52.466;13.436;2023-07-28T09:18:14;2.77;;;1.83;;
5149;SDS011;2593;52.466;13.436;2023-07-28T09:20:41;2.07;;;1.47;;
5149;SDS011;2593;52.466;13.436;2023-07-28T09:23:08;2.47;;;1.43;;
5149;SDS011;2593;52.466;13.436;2023-07-28T09:25:35;1.53;;;1.20;;
5149;SDS011;2593;52.466;13.436;2023-07-28T09:28:01;2.60;;;1.87;;
5149;SDS011;2593;52.466;13.436;2023-07-28T09:30:42;1.20;;;1.10;;
5149;SDS011;2593;52.466;13.436;2023-07-28T09:33:08;2.23;;;1.20;;
5149;SDS011;2593;52.466;13.436;2023-07-28T09:35:34;1.40;;;1.30;;
5149;SDS011;2593;52.466;13.436;2023-07-28T09:38:00;1.57;;;1.40;;
5149;SDS011;2593;52.466;13.436;2023-07-28T09:40:27;1.50;;;1.40;;
5149;SDS011;2593;52.466;13.436;2023-07-28T09:42:53;2.60;;;2.40;;
5149;SDS011;2593;52.466;13.436;2023-07-28T09:45:20;2.40;;;1.20;;
5149;SDS011;2593;52.466;13.436;2023-07-28T09:47:47;2.37;;;1.77;;
5149;SDS011;2593;52.466;13.436;2023-07-28T09:50:14;1.20;;;1.10;;
5149;SDS011;2593;52.466;13.436;2023-07-28T09:52:46;1.13;;;1.13;;
5149;SDS011;2593;52.466;13.436;2023-07-28T09:55:12;1.20;;;1.10;;
5149;SDS011;2593;52.466;13.436;2023-07-28T09:57:44;3.47;;;2.30;;
5149;SDS011;2593;52.466;13.436;2023-07-28T10:00:11;7.10;;;1.47;;
5149;SDS011;2593;52.466;13.436;2023-07-28T10:02:39;1.20;;;1.10;;
5149;SDS011;2593;52.466;13.436;2023-07-28T10:05:06;4.37;;;1.37;;
5149;SDS011;2593;52.466;13.436;2023-07-28T10:07:33;2.60;;;1.20;;
5149;SDS011;2593;52.466;13.436;2023-07-28T10:09:59;1.97;;;1.20;;
5149;SDS011;2593;52.466;13.436;2023-07-28T10:12:26;1.10;;;1.00;;
5149;SDS011;2593;52.466;13.436;2023-07-28T10:15:02;3.23;;;1.03;;
5149;SDS011;2593;52.466;13.436;2023-07-28T10:17:34;1.47;;;1.23;;
5149;SDS011;2593;52.466;13.436;2023-07-28T10:20:04;1.20;;;1.00;;
5149;SDS011;2593;52.466;13.436;2023-07-28T10:22:46;8.10;;;1.43;;
5149;SDS011;2593;52.466;13.436;2023-07-28T10:25:12;3.50;;;2.90;;
5149;SDS011;2593;52.466;13.436;2023-07-28T10:27:47;2.17;;;1.97;;
5149;SDS011;2593;52.466;13.436;2023-07-28T10:30:14;1.87;;;1.77;;
5149;SDS011;2593;52.466;13.436;2023-07-28T10:32:45;3.80;;;3.50;;
5149;SDS011;2593;52.466;13.436;2023-07-28T10:37:37;1.70;;;1.60;;
5149;SDS011;2593;52.466;13.436;2023-07-28T10:42:51;2.17;;;1.80;;
5149;SDS011;2593;52.466;13.436;2023-07-28T10:45:18;1.90;;;1.80;;
5149;SDS011;2593;52.466;13.436;2023-07-28T10:47:44;6.20;;;4.33;;
5149;SDS011;2593;52.466;13.436;2023-07-28T10:50:11;6.30;;;3.97;;
5149;SDS011;2593;52.466;13.436;2023-07-28T10:52:43;4.27;;;3.17;;
5149;SDS011;2593;52.466;13.436;2023-07-28T10:57:42;5.70;;;4.57;;
5149;SDS011;2593;52.466;13.436;2023-07-28T11:00:10;12.67;;;6.67;;
5149;SDS011;2593;52.466;13.436;2023-07-28T11:02:43;11.93;;;4.43;;
5149;SDS011;2593;52.466;13.436;2023-07-28T11:05:10;19.57;;;9.63;;
5149;SDS011;2593;52.466;13.436;2023-07-28T11:07:37;9.13;;;6.20;;
5149;SDS011;2593;52.466;13.436;2023-07-28T11:10:03;4.13;;;3.83;;
5149;SDS011;2593;52.466;13.436;2023-07-28T11:12:31;3.20;;;3.00;;
5149;SDS011;2593;52.466;13.436;2023-07-28T11:14:58;3.53;;;2.83;;
5149;SDS011;2593;52.466;13.436;2023-07-28T11:17:24;2.43;;;2.23;;
5149;SDS011;2593;52.466;13.436;2023-07-28T11:19:52;1.70;;;1.30;;
5149;SDS011;2593;52.466;13.436;2023-07-28T11:22:18;3.37;;;1.77;;
5149;SDS011;2593;52.466;13.436;2023-07-28T11:24:44;3.73;;;3.40;;
5149;SDS011;2593;52.466;13.436;2023-07-28T11:27:10;1.93;;;1.20;;
5149;SDS011;2593;52.466;13.436;2023-07-28T11:29:37;1.60;;;1.40;;
5149;SDS011;2593;52.466;13.436;2023-07-28T11:32:03;2.97;;;1.97;;
5149;SDS011;2593;52.466;13.436;2023-07-28T11:34:33;5.13;;;2.30;;
5149;SDS011;2593;52.466;13.436;2023-07-28T11:37:00;12.03;;;2.60;;
5149;SDS011;2593;52.466;13.436;2023-07-28T11:39:28;7.00;;;2.40;;
5149;SDS011;2593;52.466;13.436;2023-07-28T11:41:56;6.53;;;2.43;;
5149;SDS011;2593;52.466;13.436;2023-07-28T11:44:22;2.60;;;2.00;;
5149;SDS011;2593;52.466;13.436;2023-07-28T11:46:49;2.60;;;1.87;;
5149;SDS011;2593;52.466;13.436;2023-07-28T11:49:20;2.30;;;2.10;;
5149;SDS011;2593;52.466;13.436;2023-07-28T11:51:50;2.70;;;2.23;;
5149;SDS011;2593;52.466;13.436;2023-07-28T11:54:17;2.23;;;2.13;;
5149;SDS011;2593;52.466;13.436;2023-07-28T11:56:47;4.20;;;3.83;;
5149;SDS011;2593;52.466;13.436;2023-07-28T11:59:17;2.70;;;1.70;;
5149;SDS011;2593;52.466;13.436;2023-07-28T12:04:26;7.83;;;6.73;;
5149;SDS011;2593;52.466;13.436;2023-07-28T12:09:28;3.80;;;2.80;;
5149;SDS011;2593;52.466;13.436;2023-07-28T12:11:56;5.10;;;1.93;;
5149;SDS011;2593;52.466;13.436;2023-07-28T12:14:32;1.30;;;1.20;;
5149;SDS011;2593;52.466;13.436;2023-07-28T12:16:59;1.40;;;1.30;;
5149;SDS011;2593;52.466;13.436;2023-07-28T12:19:26;4.37;;;1.97;;
5149;SDS011;2593;52.466;13.436;2023-07-28T12:21:52;1.80;;;1.70;;
5149;SDS011;2593;52.466;13.436;2023-07-28T12:24:18;2.30;;;2.20;;
5149;SDS011;2593;52.466;13.436;2023-07-28T12:26:48;1.60;;;1.50;;
5149;SDS011;2593;52.466;13.436;2023-07-28T12:29:16;1.80;;;1.70;;
5149;SDS011;2593;52.466;13.436;2023-07-28T12:31:42;2.93;;;1.70;;
5149;SDS011;2593;52.466;13.436;2023-07-28T12:34:08;1.77;;;1.67;;
5149;SDS011;2593;52.466;13.436;2023-07-28T12:36:34;1.97;;;1.70;;
5149;SDS011;2593;52.466;13.436;2023-07-28T12:39:00;2.40;;;2.20;;
5149;SDS011;2593;52.466;13.436;2023-07-28T12:41:26;6.57;;;2.30;;
5149;SDS011;2593;52.466;13.436;2023-07-28T12:43:52;3.17;;;2.90;;
5149;SDS011;2593;52.466;13.436;2023-07-28T12:46:18;1.87;;;1.77;;
5149;SDS011;2593;52.466;13.436;2023-07-28T12:48:44;1.63;;;1.53;;
5149;SDS011;2593;52.466;13.436;2023-07-28T12:51:10;1.83;;;1.70;;
5149;SDS011;2593;52.466;13.436;2023-07-28T12:53:36;2.20;;;1.77;;
5149;SDS011;2593;52.466;13.436;2023-07-28T12:56:02;2.53;;;2.33;;
5149;SDS011;2593;52.466;13.436;2023-07-28T12:58:28;4.57;;;4.27;;
5149;SDS011;2593;52.466;13.436;2023-07-28T13:00:56;4.60;;;4.30;;
5149;SDS011;2593;52.466;13.436;2023-07-28T13:03:24;2.30;;;2.20;;
5149;SDS011;2593;52.466;13.436;2023-07-28T13:05:50;1.97;;;1.87;;
5149;SDS011;2593;52.466;13.436;2023-07-28T13:08:16;2.40;;;2.20;;
5149;SDS011;2593;52.466;13.436;2023-07-28T13:10:42;2.60;;;1.80;;
5149;SDS011;2593;52.466;13.436;2023-07-28T13:13:08;4.70;;;3.77;;
5149;SDS011;2593;52.466;13.436;2023-07-28T13:15:34;2.47;;;1.70;;
5149;SDS011;2593;52.466;13.436;2023-07-28T13:18:00;2.40;;;1.57;;
5149;SDS011;2593;52.466;13.436;2023-07-28T13:20:26;1.60;;;1.50;;
5149;SDS011;2593;52.466;13.436;2023-07-28T13:22:52;1.47;;;1.30;;
5149;SDS011;2593;52.466;13.436;2023-07-28T13:25:18;2.60;;;2.40;;
5149;SDS011;2593;52.466;13.436;2023-07-28T13:27:44;3.10;;;2.90;;
5149;SDS011;2593;52.466;13.436;2023-07-28T13:30:11;6.00;;;3.20;;
5149;SDS011;2593;52.466;13.436;2023-07-28T13:32:37;3.90;;;2.27;;
5149;SDS011;2593;52.466;13.436;2023-07-28T13:35:03;1.97;;;1.87;;
5149;SDS011;2593;52.466;13.436;2023-07-28T13:37:29;8.37;;;1.83;;
5149;SDS011;2593;52.466;13.436;2023-07-28T13:39:55;1.97;;;1.83;;
5149;SDS011;2593;52.466;13.436;2023-07-28T13:42:21;2.97;;;2.50;;
5149;SDS011;2593;52.466;13.436;2023-07-28T13:44:47;2.27;;;2.17;;
5149;SDS011;2593;52.466;13.436;2023-07-28T13:47:13;1.80;;;1.53;;
5149;SDS011;2593;52.466;13.436;2023-07-28T13:49:39;2.83;;;2.57;;
5149;SDS011;2593;52.466;13.436;2023-07-28T13:52:06;6.33;;;2.80;;
5149;SDS011;2593;52.466;13.436;2023-07-28T13:54:32;8.40;;;3.10;;
5149;SDS011;2593;52.466;13.436;2023-07-28T13:56:58;8.97;;;4.57;;
5149;SDS011;2593;52.466;13.436;2023-07-28T13:59:24;12.43;;;7.20;;
5149;SDS011;2593;52.466;13.436;2023-07-28T14:01:50;5.43;;;4.70;;
5149;SDS011;2593;52.466;13.436;2023-07-28T14:04:17;8.40;;;3.90;;
5149;SDS011;2593;52.466;13.436;2023-07-28T14:06:43;9.87;;;6.07;;
5149;SDS011;2593;52.466;13.436;2023-07-28T14:09:09;4.10;;;3.00;;
5149;SDS011;2593;52.466;13.436;2023-07-28T14:11:35;2.33;;;2.13;;
5149;SDS011;2593;52.466;13.436;2023-07-28T14:14:01;3.73;;;2.70;;
5149;SDS011;2593;52.466;13.436;2023-07-28T14:16:27;9.73;;;5.70;;
5149;SDS011;2593;52.466;13.436;2023-07-28T14:18:53;7.77;;;5.20;;
5149;SDS011;2593;52.466;13.436;2023-07-28T14:21:20;9.50;;;5.00;;
5149;SDS011;2593;52.466;13.436;2023-07-28T14:23:46;5.73;;;2.00;;
5149;SDS011;2593;52.466;13.436;2023-07-28T14:26:12;3.00;;;2.00;;
5149;SDS011;2593;52.466;13.436;2023-07-28T14:28:38;2.30;;;2.20;;
5149;SDS011;2593;52.466;13.436;2023-07-28T14:31:04;1.40;;;1.30;;
5149;SDS011;2593;52.466;13.436;2023-07-28T14:33:30;2.90;;;1.53;;
5149;SDS011;2593;52.466;13.436;2023-07-28T14:35:56;1.70;;;1.60;;
5149;SDS011;2593;52.466;13.436;2023-07-28T14:38:22;2.80;;;1.67;;
5149;SDS011;2593;52.466;13.436;2023-07-28T14:40:48;1.57;;;1.47;;
5149;SDS011;2593;52.466;13.436;2023-07-28T14:43:17;7.27;;;6.57;;
5149;SDS011;2593;52.466;13.436;2023-07-28T14:45:43;3.37;;;2.30;;
5149;SDS011;2593;52.466;13.436;2023-07-28T14:48:09;1.57;;;1.33;;
5149;SDS011;2593;52.466;13.436;2023-07-28T14:50:35;2.13;;;1.87;;
5149;SDS011;2593;52.466;13.436;2023-07-28T14:53:01;2.70;;;2.50;;
5149;SDS011;2593;52.466;13.436;2023-07-28T14:55:27;2.90;;;2.73;;
5149;SDS011;2593;52.466;13.436;2023-07-28T14:57:54;2.27;;;2.17;;
5149;SDS011;2593;52.466;13.436;2023-07-28T15:00:20;2.13;;;2.03;;
5149;SDS011;2593;52.466;13.436;2023-07-28T15:02:46;2.10;;;2.00;;
5149;SDS011;2593;52.466;13.436;2023-07-28T15:05:12;1.83;;;1.73;;
5149;SDS011;2593;52.466;13.436;2023-07-28T15:07:38;1.77;;;1.60;;
5149;SDS011;2593;52.466;13.436;2023-07-28T15:10:04;2.70;;;2.53;;
5149;SDS011;2593;52.466;13.436;2023-07-28T15:12:30;3.90;;;3.00;;